createdAt,value
2023-01-01T00:00:22.227Z,24.63
2023-01-01T00:03:24.112Z,22.75
2023-01-01T00:06:26.679Z,22.58
2023-01-01T00:09:47.550Z,24.13
2023-01-01T00:12:49.388Z,25.75
2023-01-01T00:15:51.272Z,25.67
2023-01-01T00:18:53.131Z,24.98
2023-01-01T00:21:55.307Z,23.67
2023-01-01T00:24:57.290Z,26.08
2023-01-01T00:27:59.221Z,24.88
2023-01-01T00:31:05.679Z,26.20
2023-01-01T00:34:10.130Z,25.73
2023-01-01T00:37:11.900Z,26.48
2023-01-01T00:40:16.727Z,25.05
2023-01-01T00:43:18.534Z,25.23
2023-01-01T00:46:20.441Z,25.48
2023-01-01T00:49:22.337Z,24.48
2023-01-01T00:52:24.222Z,26.73
2023-01-01T00:55:26.117Z,25.95
2023-01-01T00:58:27.923Z,26.02
2023-01-01T01:01:29.994Z,27.88
2023-01-01T01:04:32.058Z,25.95
2023-01-01T01:07:37.524Z,23.20
2023-01-01T01:10:39.509Z,24.33
2023-01-01T01:13:43.730Z,23.88
2023-01-01T01:16:45.616Z,23.83
2023-01-01T01:19:47.592Z,23.80
2023-01-01T01:22:49.404Z,22.38
2023-01-01T01:25:51.281Z,22.88
2023-01-01T01:28:54.102Z,22.80
2023-01-01T01:31:56.284Z,22.60
2023-01-01T01:34:58.119Z,22.38
2023-01-01T01:38:00.025Z,23.38
2023-01-01T01:41:02.143Z,23.00
2023-01-01T01:44:28.525Z,21.60
2023-01-01T01:47:38.084Z,21.52
2023-01-01T01:50:43.540Z,22.23
2023-01-01T01:53:50.216Z,22.30
2023-01-01T01:57:00.547Z,21.50
2023-01-01T02:00:10.656Z,21.05
2023-01-01T02:03:24.214Z,21.17
2023-01-01T02:06:33.676Z,20.52
2023-01-01T02:09:38.490Z,20.90
2023-01-01T02:12:42.448Z,20.85
2023-01-01T02:15:55.910Z,20.05
2023-01-01T02:19:02.635Z,20.92
2023-01-01T02:22:07.240Z,19.13
2023-01-01T02:25:14.798Z,20.40
2023-01-01T02:29:10.977Z,20.10
2023-01-01T02:32:18.057Z,19.88
2023-01-01T02:35:34.954Z,20.27
2023-01-01T02:38:41.339Z,19.60
2023-01-01T02:41:49.712Z,19.75
2023-01-01T02:44:54.492Z,20.15
2023-01-01T02:47:56.399Z,20.08
2023-01-01T02:51:03.143Z,19.48
2023-01-01T02:54:17.115Z,19.52
2023-01-01T02:57:31.379Z,19.02
2023-01-01T03:00:35.728Z,19.40
2023-01-01T03:03:45.162Z,19.10
2023-01-01T03:07:05.658Z,19.25
2023-01-01T03:10:35.636Z,19.88
2023-01-01T03:13:50.291Z,19.23
2023-01-01T03:17:03.251Z,19.08
2023-01-01T03:20:13.560Z,19.50
2023-01-01T03:23:21.111Z,19.08
2023-01-01T03:26:25.443Z,19.65
2023-01-01T03:29:32.177Z,19.15
2023-01-01T03:33:00.475Z,20.85
2023-01-01T03:36:18.256Z,24.02
2023-01-01T03:39:43.192Z,24.50
2023-01-01T03:42:55.773Z,19.42
2023-01-01T03:46:01.750Z,14.95
2023-01-01T03:49:07.467Z,19.40
2023-01-01T03:52:18.941Z,19.48
2023-01-01T03:55:24.374Z,17.92
2023-01-01T03:58:39.723Z,18.77
2023-01-01T04:01:47.963Z,18.15
2023-01-01T04:04:50.210Z,19.60
2023-01-01T04:07:53.712Z,19.13
2023-01-01T04:10:57.958Z,19.20
2023-01-01T04:13:59.835Z,18.88
2023-01-01T04:17:02.881Z,18.77
2023-01-01T04:20:05.680Z,18.02
2023-01-01T04:23:07.591Z,18.50
2023-01-01T04:26:16.189Z,19.10
2023-01-01T04:29:18.731Z,19.10
2023-01-01T04:32:20.576Z,17.52
2023-01-01T04:35:22.805Z,18.08
2023-01-01T04:38:24.618Z,18.85
2023-01-01T04:41:26.788Z,18.45
2023-01-01T04:44:28.587Z,19.55
2023-01-01T04:47:30.539Z,18.90
2023-01-01T04:50:32.417Z,18.35
2023-01-01T04:53:35.687Z,17.88
2023-01-01T04:56:37.733Z,17.90
2023-01-01T04:59:39.629Z,18.17
2023-01-01T05:02:41.569Z,18.95
2023-01-01T05:05:48.077Z,18.97
2023-01-01T05:08:56.903Z,18.48
2023-01-01T05:11:58.814Z,18.23
2023-01-01T05:15:01.679Z,19.48
2023-01-01T05:18:03.831Z,18.47
2023-01-01T05:21:08.924Z,19.20
2023-01-01T05:24:10.936Z,19.00
2023-01-01T05:27:13.105Z,18.65
2023-01-01T05:30:14.972Z,18.67
2023-01-01T05:33:16.815Z,18.15
2023-01-01T05:36:25.357Z,19.35
2023-01-01T05:39:27.173Z,19.23
2023-01-01T05:42:29.035Z,20.35
2023-01-01T05:45:31.428Z,19.02
2023-01-01T05:48:36.660Z,19.20
2023-01-01T05:54:42.675Z,17.85
2023-01-01T05:57:44.571Z,19.58
2023-01-01T06:00:46.437Z,19.35
2023-01-01T06:03:49.136Z,19.45
2023-01-01T06:06:50.978Z,19.13
2023-01-01T06:09:54.436Z,20.33
2023-01-01T06:12:59.021Z,20.33
2023-01-01T06:16:02.353Z,20.63
2023-01-01T06:19:04.482Z,20.45
2023-01-01T06:22:06.368Z,19.17
2023-01-01T06:25:09.200Z,22.17
2023-01-01T06:28:11.318Z,22.00
2023-01-01T06:31:16.286Z,20.87
2023-01-01T06:34:18.344Z,20.15
2023-01-01T06:37:20.705Z,20.08
2023-01-01T06:40:22.595Z,19.83
2023-01-01T06:43:25.205Z,21.07
2023-01-01T06:46:32.517Z,21.25
2023-01-01T06:49:34.469Z,20.48
2023-01-01T06:52:36.597Z,21.17
2023-01-01T06:55:55.001Z,21.80
2023-01-01T06:58:59.418Z,21.05
2023-01-01T07:02:01.516Z,20.73
2023-01-01T07:05:03.642Z,20.63
2023-01-01T07:08:05.628Z,22.90
2023-01-01T07:11:07.593Z,22.00
2023-01-01T07:14:09.388Z,21.35
2023-01-01T07:17:11.196Z,21.70
2023-01-01T07:20:13.198Z,21.17
2023-01-01T07:23:15.025Z,21.17
2023-01-01T07:26:16.949Z,21.85
2023-01-01T07:29:18.784Z,21.73
2023-01-01T07:32:20.662Z,22.20
2023-01-01T07:35:22.955Z,22.25
2023-01-01T07:38:24.821Z,21.85
2023-01-01T07:41:26.672Z,20.48
2023-01-01T07:44:29.336Z,21.33
2023-01-01T07:47:31.276Z,21.33
2023-01-01T07:50:33.342Z,21.10
2023-01-01T07:53:35.230Z,21.53
2023-01-01T07:56:37.103Z,21.48
2023-01-01T07:59:38.997Z,21.75
2023-01-01T08:02:41.126Z,20.92
2023-01-01T08:05:43.661Z,21.23
2023-01-01T08:08:45.506Z,20.65
2023-01-01T08:11:47.387Z,20.92
2023-01-01T08:14:49.323Z,20.75
2023-01-01T08:17:56.379Z,20.42
2023-01-01T08:20:58.276Z,21.70
2023-01-01T08:24:00.166Z,20.88
2023-01-01T08:27:02.136Z,20.90
2023-01-01T08:30:04.811Z,20.55
2023-01-01T08:33:06.717Z,21.08
2023-01-01T08:36:12.968Z,21.08
2023-01-01T08:39:14.868Z,20.45
2023-01-01T08:42:18.633Z,20.02
2023-01-01T08:45:20.669Z,21.30
2023-01-01T08:48:27.182Z,21.57
2023-01-01T08:51:32.587Z,21.15
2023-01-01T08:54:34.579Z,20.05
2023-01-01T08:57:36.617Z,19.90
2023-01-01T09:00:38.431Z,21.37
2023-01-01T09:03:40.452Z,19.88
2023-01-01T09:06:42.478Z,20.70
2023-01-01T09:09:44.430Z,20.95
2023-01-01T09:12:47.132Z,19.93
2023-01-01T09:15:49.512Z,20.15
2023-01-01T09:18:51.778Z,20.63
2023-01-01T09:21:54.361Z,19.77
2023-01-01T09:24:56.324Z,20.13
2023-01-01T09:28:06.595Z,20.00
2023-01-01T09:31:08.690Z,19.45
2023-01-01T09:34:12.173Z,19.20
2023-01-01T09:37:13.960Z,19.67
2023-01-01T09:40:54.648Z,19.05
2023-01-01T09:44:25.527Z,20.48
2023-01-01T09:47:41.064Z,20.15
2023-01-01T09:50:46.034Z,20.38
2023-01-01T09:54:01.761Z,18.33
2023-01-01T09:57:14.806Z,19.00
2023-01-01T10:00:20.505Z,20.55
2023-01-01T10:03:37.577Z,19.60
2023-01-01T10:06:49.242Z,20.50
2023-01-01T10:10:19.474Z,18.75
2023-01-01T10:13:37.050Z,19.58
2023-01-01T10:16:48.715Z,23.15
2023-01-01T10:19:58.578Z,21.65
2023-01-01T10:23:08.932Z,19.63
2023-01-01T10:26:18.251Z,19.92
2023-01-01T10:29:29.910Z,19.13
2023-01-01T10:32:35.432Z,19.42
2023-01-01T10:35:45.792Z,19.63
2023-01-01T10:38:51.546Z,18.75
2023-01-01T10:41:54.228Z,19.02
2023-01-01T10:44:57.696Z,19.45
2023-01-01T10:48:13.937Z,19.15
2023-01-01T10:51:17.868Z,18.13
2023-01-01T10:54:37.615Z,18.35
2023-01-01T10:57:40.619Z,17.50
2023-01-01T11:04:13.305Z,18.40
2023-01-01T11:07:24.946Z,17.38
2023-01-01T11:10:29.019Z,18.67
2023-01-01T11:13:32.855Z,20.15
2023-01-01T11:16:40.050Z,19.83
2023-01-01T11:19:48.751Z,18.33
2023-01-01T11:22:53.105Z,21.55
2023-01-01T11:26:00.438Z,30.00
2023-01-01T11:29:16.769Z,23.08
2023-01-01T11:32:31.372Z,18.70
2023-01-01T11:35:48.440Z,17.95
2023-01-01T11:39:03.792Z,18.60
2023-01-01T11:42:06.751Z,19.67
2023-01-01T11:48:31.016Z,18.02
2023-01-01T11:51:33.999Z,18.27
2023-01-01T11:57:48.691Z,16.75
2023-01-01T12:00:56.093Z,16.33
2023-01-01T12:04:19.321Z,16.92
2023-01-01T12:10:51.994Z,20.65
2023-01-01T12:14:06.506Z,18.05
2023-01-01T12:17:18.023Z,23.33
2023-01-01T12:20:39.037Z,19.25
2023-01-01T12:23:41.268Z,19.80
2023-01-01T12:27:10.326Z,18.67
2023-01-01T12:30:19.641Z,19.10
2023-01-01T12:33:37.106Z,19.17
2023-01-01T12:37:08.592Z,19.65
2023-01-01T12:40:25.983Z,16.50
2023-01-01T12:43:43.482Z,17.40
2023-01-01T12:47:12.015Z,18.40
2023-01-01T12:50:25.613Z,17.45
2023-01-01T12:53:39.616Z,17.13
2023-01-01T12:56:50.287Z,16.92
2023-01-01T12:59:55.566Z,16.75
2023-01-01T13:03:07.947Z,17.42
2023-01-01T13:06:16.294Z,17.20
2023-01-01T13:09:22.730Z,16.23
2023-01-01T13:12:26.693Z,17.20
2023-01-01T13:15:35.872Z,17.25
2023-01-01T13:18:39.045Z,17.48
2023-01-01T13:21:40.942Z,16.63
2023-01-01T13:24:42.931Z,17.05
2023-01-01T13:27:57.459Z,16.23
2023-01-01T13:30:59.599Z,16.88
2023-01-01T13:34:35.738Z,15.50
2023-01-01T13:37:44.647Z,16.33
2023-01-01T13:40:51.194Z,16.63
2023-01-01T13:43:53.956Z,16.65
2023-01-01T13:47:15.900Z,17.13
2023-01-01T13:50:42.509Z,17.23
2023-01-01T13:54:16.126Z,16.40
2023-01-01T13:57:31.808Z,20.65
2023-01-01T14:00:58.196Z,18.52
2023-01-01T14:04:02.203Z,16.52
2023-01-01T14:07:49.002Z,17.65
2023-01-01T14:10:38.868Z,17.00
2023-01-01T14:13:41.507Z,17.97
2023-01-01T14:16:43.676Z,18.35
2023-01-01T14:19:45.905Z,16.05
2023-01-01T14:22:49.449Z,18.33
2023-01-01T14:25:52.031Z,21.02
2023-01-01T14:28:55.888Z,21.13
2023-01-01T14:31:59.732Z,19.85
2023-01-01T14:35:02.693Z,19.55
2023-01-01T14:41:33.183Z,17.23
2023-01-01T14:44:38.117Z,18.20
2023-01-01T14:47:39.998Z,17.40
2023-01-01T14:50:46.008Z,18.92
2023-01-01T14:53:49.497Z,16.55
2023-01-01T14:56:51.896Z,18.83
2023-01-01T14:59:54.779Z,19.88
2023-01-01T15:06:18.163Z,17.35
2023-01-01T15:09:20.152Z,17.58
2023-01-01T15:12:23.210Z,19.67
2023-01-01T15:15:40.232Z,19.08
2023-01-01T15:18:46.277Z,16.73
2023-01-01T15:21:48.550Z,21.00
2023-01-01T15:24:50.964Z,18.60
2023-01-01T15:27:56.070Z,19.85
2023-01-01T15:34:00.417Z,20.88
2023-01-01T15:37:19.499Z,24.38
2023-01-01T15:40:21.606Z,23.75
2023-01-01T15:43:32.669Z,24.25
2023-01-01T15:46:34.859Z,19.73
2023-01-01T15:49:37.144Z,22.92
2023-01-01T15:52:43.284Z,21.17
2023-01-01T15:55:52.202Z,20.25
2023-01-01T15:59:08.718Z,19.27
2023-01-01T16:02:33.852Z,18.75
2023-01-01T16:05:36.081Z,19.85
2023-01-01T16:08:38.486Z,20.65
2023-01-01T16:11:40.761Z,18.55
2023-01-01T16:14:43.096Z,18.92
2023-01-01T16:17:46.335Z,23.05
2023-01-01T16:20:48.769Z,21.63
2023-01-01T16:23:52.684Z,20.75
2023-01-01T16:26:55.019Z,22.55
2023-01-01T16:29:58.201Z,22.40
2023-01-01T16:33:01.187Z,18.42
2023-01-01T16:39:05.649Z,20.80
2023-01-01T16:42:12.151Z,21.95
2023-01-01T16:45:20.923Z,19.98
2023-01-01T16:48:23.755Z,20.45
2023-01-01T16:54:30.795Z,21.10
2023-01-01T16:57:33.030Z,18.55
2023-01-01T17:00:37.823Z,21.50
2023-01-01T17:03:40.502Z,22.65
2023-01-01T17:06:42.774Z,22.83
2023-01-01T17:09:46.598Z,21.58
2023-01-01T17:12:50.495Z,20.35
2023-01-01T17:19:16.668Z,18.45
2023-01-01T17:22:22.322Z,17.13
2023-01-01T17:25:27.351Z,17.13
2023-01-01T17:28:29.591Z,17.25
2023-01-01T17:31:31.635Z,15.85
2023-01-01T17:34:34.319Z,16.20
2023-01-01T17:37:39.374Z,17.25
2023-01-01T17:40:41.581Z,19.65
2023-01-01T17:43:46.241Z,18.00
2023-01-01T17:46:48.354Z,17.23
2023-01-01T17:49:50.710Z,14.18
2023-01-01T17:52:53.356Z,12.70
2023-01-01T17:55:55.849Z,13.18
2023-01-01T17:58:58.278Z,16.00
2023-01-01T18:02:00.786Z,12.48
2023-01-01T18:05:03.504Z,12.68
2023-01-01T18:08:06.068Z,16.30
2023-01-01T18:11:13.437Z,16.33
2023-01-01T18:14:30.105Z,15.10
2023-01-01T18:17:42.662Z,16.77
2023-01-01T18:21:19.574Z,15.05
2023-01-01T18:24:23.678Z,14.07
2023-01-01T18:27:34.216Z,13.40
2023-01-01T18:30:45.297Z,13.43
2023-01-01T18:34:01.545Z,13.00
2023-01-01T18:37:07.308Z,14.40
2023-01-01T18:40:18.564Z,14.25
2023-01-01T18:43:26.740Z,14.75
2023-01-01T18:46:31.472Z,13.10
2023-01-01T18:49:38.756Z,12.32
2023-01-01T18:52:45.071Z,12.77
2023-01-01T18:55:52.647Z,13.15
2023-01-01T18:58:57.066Z,18.17
2023-01-01T19:01:59.256Z,21.77
2023-01-01T19:05:17.553Z,20.73
2023-01-01T19:08:21.759Z,21.40
2023-01-01T19:11:23.643Z,21.52
2023-01-01T19:14:27.306Z,21.15
2023-01-01T19:17:29.457Z,15.23
2023-01-01T19:20:31.417Z,14.65
2023-01-01T19:23:36.861Z,18.23
2023-01-01T19:26:42.549Z,16.60
2023-01-01T19:29:46.660Z,14.27
2023-01-01T19:32:49.122Z,17.02
2023-01-01T19:35:51.104Z,18.02
2023-01-01T19:38:53.026Z,21.90
2023-01-01T19:41:56.922Z,17.00
2023-01-01T19:45:00.896Z,15.95
2023-01-01T19:48:02.844Z,12.70
2023-01-01T19:51:04.959Z,13.45
2023-01-01T19:54:07.388Z,12.23
2023-01-01T19:57:09.228Z,10.88
2023-01-01T20:00:11.535Z,11.00
2023-01-01T20:03:52.242Z,10.52
2023-01-01T20:06:38.528Z,11.73
2023-01-01T20:09:41.047Z,11.00
2023-01-01T20:12:43.007Z,9.95
2023-01-01T20:27:16.513Z,11.05
2023-01-01T20:30:18.360Z,10.48
2023-01-01T20:33:20.293Z,10.13
2023-01-01T20:42:10.043Z,10.02
2023-01-01T20:45:16.463Z,8.93
2023-01-01T20:48:22.070Z,9.90
2023-01-01T20:51:24.276Z,9.37
2023-01-01T20:59:38.660Z,10.02
2023-01-01T21:02:41.765Z,9.80
2023-01-01T21:05:43.670Z,9.50
2023-01-01T21:08:47.047Z,9.48
2023-01-01T21:11:49.724Z,9.23
2023-01-01T21:14:54.561Z,9.40
2023-01-01T21:17:56.515Z,9.90
2023-01-01T21:20:58.318Z,9.38
2023-01-01T21:24:17.960Z,10.10
2023-01-01T21:27:33.364Z,10.00
2023-01-01T21:30:35.268Z,9.68
2023-01-01T21:33:37.171Z,9.73
2023-01-01T21:36:38.961Z,9.77
2023-01-01T21:39:41.574Z,9.65
2023-01-01T21:42:43.480Z,9.30
2023-01-01T21:45:47.157Z,9.00
2023-01-01T21:49:12.351Z,8.85
2023-01-01T21:52:19.219Z,9.13
2023-01-01T21:55:26.293Z,9.23
2023-01-01T21:58:56.840Z,9.68
2023-01-01T22:02:06.868Z,9.27
2023-01-01T22:05:30.169Z,9.55
2023-01-01T22:08:44.038Z,9.02
2023-01-01T22:11:47.624Z,9.35
2023-01-01T22:14:51.882Z,9.43
2023-01-01T22:18:26.511Z,8.70
2023-01-01T22:21:30.642Z,9.00
2023-01-01T22:24:34.926Z,9.82
2023-01-01T22:27:37.666Z,9.35
2023-01-01T22:30:41.585Z,8.90
2023-01-01T22:33:46.417Z,8.57
2023-01-01T22:36:48.701Z,9.15
2023-01-01T22:39:51.945Z,8.85
2023-01-01T22:42:54.136Z,9.68
2023-01-01T22:45:56.371Z,9.43
2023-01-01T22:49:00.257Z,9.13
2023-01-01T22:52:03.931Z,8.82
2023-01-01T22:55:06.045Z,9.52
2023-01-01T22:58:08.386Z,8.80
2023-01-01T23:01:10.494Z,8.10
2023-01-01T23:04:12.340Z,9.60
2023-01-01T23:07:14.573Z,8.57
2023-01-01T23:10:16.573Z,8.30
2023-01-01T23:13:37.282Z,8.97
2023-01-01T23:16:39.154Z,9.10
2023-01-01T23:19:41.040Z,8.48
2023-01-01T23:22:45.947Z,8.27
2023-01-01T23:25:47.827Z,9.00
2023-01-01T23:28:49.884Z,8.60
2023-01-01T23:31:51.810Z,7.97
2023-01-01T23:34:54.151Z,8.50
2023-01-01T23:37:56.098Z,8.23
2023-01-01T23:40:57.922Z,8.27
2023-01-01T23:43:59.829Z,8.07
2023-01-01T23:47:02.261Z,8.60
2023-01-01T23:50:04.773Z,7.68
2023-01-01T23:53:06.739Z,7.63
2023-01-01T23:56:08.619Z,8.13
2023-01-01T23:59:11.988Z,7.90
